createdAt,value
2023-06-02T00:03:38.033Z,21.82
2023-06-02T00:06:08.347Z,21.82
2023-06-02T00:08:38.109Z,21.84
2023-06-02T00:11:07.540Z,21.85
2023-06-02T00:13:36.065Z,21.87
2023-06-02T00:16:05.310Z,21.89
2023-06-02T00:18:34.255Z,21.89
2023-06-02T00:21:02.513Z,21.89
2023-06-02T00:23:31.530Z,21.90
2023-06-02T00:26:00.674Z,21.91
2023-06-02T00:28:29.647Z,21.90
2023-06-02T00:30:58.804Z,21.87
2023-06-02T00:33:27.498Z,21.85
2023-06-02T00:35:55.730Z,21.83
2023-06-02T00:38:24.318Z,21.81
2023-06-02T00:40:52.514Z,21.79
2023-06-02T00:43:20.652Z,21.78
2023-06-02T00:45:49.708Z,21.77
2023-06-02T00:48:17.990Z,21.74
2023-06-02T00:50:46.377Z,21.72
2023-06-02T00:53:15.838Z,21.69
2023-06-02T00:55:45.353Z,21.68
2023-06-02T00:58:15.233Z,21.66
2023-06-02T01:00:44.834Z,21.65
2023-06-02T01:03:16.023Z,21.65
2023-06-02T01:05:46.211Z,21.66
2023-06-02T01:08:17.492Z,21.65
2023-06-02T01:10:45.929Z,21.65
2023-06-02T01:13:14.951Z,21.66
2023-06-02T01:15:46.435Z,21.65
2023-06-02T01:18:16.512Z,21.67
2023-06-02T01:20:47.664Z,21.66
2023-06-02T01:23:33.747Z,21.65
2023-06-02T01:26:02.805Z,21.64
2023-06-02T01:28:31.140Z,21.65
2023-06-02T01:31:43.139Z,21.64
2023-06-02T01:34:18.465Z,21.63
2023-06-02T01:36:50.374Z,21.63
2023-06-02T01:39:19.739Z,21.62
2023-06-02T01:41:50.700Z,21.61
2023-06-02T01:44:20.751Z,21.60
2023-06-02T01:46:50.232Z,21.60
2023-06-02T01:49:19.129Z,21.59
2023-06-02T01:51:48.332Z,21.57
2023-06-02T01:54:17.230Z,21.57
2023-06-02T01:56:45.343Z,21.57
2023-06-02T01:59:13.472Z,21.56
2023-06-02T02:01:41.914Z,21.53
2023-06-02T02:04:11.068Z,21.52
2023-06-02T02:06:40.406Z,21.50
2023-06-02T02:09:08.690Z,21.48
2023-06-02T02:11:37.861Z,21.46
2023-06-02T02:14:06.190Z,21.43
2023-06-02T02:16:37.269Z,21.40
2023-06-02T02:19:05.580Z,21.39
2023-06-02T02:21:34.978Z,21.37
2023-06-02T02:24:04.475Z,21.36
2023-06-02T02:26:33.966Z,21.34
2023-06-02T02:29:02.699Z,21.31
2023-06-02T02:31:32.294Z,21.28
2023-06-02T02:34:00.692Z,21.26
2023-06-02T02:36:28.948Z,21.22
2023-06-02T02:38:57.977Z,21.21
2023-06-02T02:41:27.201Z,21.19
2023-06-02T02:43:55.909Z,21.14
2023-06-02T02:46:24.753Z,21.12
2023-06-02T02:48:53.140Z,21.10
2023-06-02T02:51:21.382Z,21.08
2023-06-02T02:53:49.693Z,21.05
2023-06-02T02:56:17.986Z,21.04
2023-06-02T02:58:46.342Z,21.02
2023-06-02T03:01:14.898Z,21.00
2023-06-02T03:03:43.782Z,20.96
2023-06-02T03:06:12.058Z,20.93
2023-06-02T03:08:41.148Z,20.91
2023-06-02T03:11:12.503Z,20.90
2023-06-02T03:13:41.467Z,20.86
2023-06-02T03:16:10.472Z,20.84
2023-06-02T03:18:39.195Z,20.83
2023-06-02T03:21:07.427Z,20.82
2023-06-02T03:23:36.148Z,20.78
2023-06-02T03:26:05.000Z,20.77
2023-06-02T03:28:34.201Z,20.76
2023-06-02T03:31:03.056Z,20.75
2023-06-02T03:33:32.032Z,20.75
2023-06-02T03:36:00.747Z,20.72
2023-06-02T03:38:29.352Z,20.71
2023-06-02T03:40:57.484Z,20.70
2023-06-02T03:43:25.724Z,20.68
2023-06-02T03:45:53.915Z,20.67
2023-06-02T03:48:22.701Z,20.67
2023-06-02T03:50:52.301Z,20.65
2023-06-02T03:53:21.682Z,20.63
2023-06-02T03:55:50.331Z,20.60
2023-06-02T03:58:18.606Z,20.59
2023-06-02T04:00:47.294Z,20.56
2023-06-02T04:03:17.452Z,20.54
2023-06-02T04:05:46.344Z,20.51
2023-06-02T04:08:14.694Z,20.47
2023-06-02T04:10:42.873Z,20.44
2023-06-02T04:13:11.409Z,20.41
2023-06-02T04:15:39.588Z,20.39
2023-06-02T04:18:08.412Z,20.39
2023-06-02T04:20:36.911Z,20.38
2023-06-02T04:23:06.136Z,20.37
2023-06-02T04:25:36.814Z,20.37
2023-06-02T04:28:05.554Z,20.34
2023-06-02T04:30:34.563Z,20.32
2023-06-02T04:33:02.824Z,20.31
2023-06-02T04:35:31.823Z,20.30
2023-06-02T04:38:00.419Z,20.28
2023-06-02T04:40:29.977Z,20.27
2023-06-02T04:43:00.550Z,20.25
2023-06-02T04:45:29.853Z,20.22
2023-06-02T04:47:59.427Z,20.21
2023-06-02T04:50:28.465Z,20.19
2023-06-02T04:52:58.064Z,20.17
2023-06-02T04:55:30.057Z,20.16
2023-06-02T04:57:59.115Z,20.15
2023-06-02T05:00:28.728Z,20.15
2023-06-02T05:02:57.635Z,20.15
2023-06-02T05:05:27.154Z,20.16
2023-06-02T05:07:55.727Z,20.19
2023-06-02T05:10:24.086Z,20.20
2023-06-02T05:12:52.503Z,20.19
2023-06-02T05:15:21.785Z,20.20
2023-06-02T05:17:50.104Z,20.21
2023-06-02T05:20:19.066Z,20.22
2023-06-02T05:22:48.068Z,20.24
2023-06-02T05:25:16.795Z,20.24
2023-06-02T05:27:45.119Z,20.25
2023-06-02T05:30:13.568Z,20.26
2023-06-02T05:32:42.052Z,20.28
2023-06-02T05:35:10.343Z,20.30
2023-06-02T05:37:38.617Z,20.31
2023-06-02T05:40:07.827Z,20.34
2023-06-02T05:42:36.012Z,20.37
2023-06-02T05:45:04.796Z,20.37
2023-06-02T05:47:33.772Z,20.38
2023-06-02T05:50:03.597Z,20.39
2023-06-02T05:52:32.019Z,20.40
2023-06-02T05:55:00.220Z,20.41
2023-06-02T05:57:29.094Z,20.44
2023-06-02T05:59:57.239Z,20.49
2023-06-02T06:02:25.566Z,20.52
2023-06-02T06:04:54.378Z,20.56
2023-06-02T06:07:22.745Z,20.59
2023-06-02T06:09:51.476Z,20.65
2023-06-02T06:12:20.147Z,20.72
2023-06-02T06:14:48.355Z,20.81
2023-06-02T06:17:16.757Z,20.89
2023-06-02T06:19:45.222Z,20.99
2023-06-02T06:22:14.394Z,21.10
2023-06-02T06:24:43.596Z,21.21
2023-06-02T06:27:13.238Z,21.33
2023-06-02T06:29:41.589Z,21.44
2023-06-02T06:32:10.429Z,21.55
2023-06-02T06:34:39.295Z,21.63
2023-06-02T06:37:07.518Z,21.71
2023-06-02T06:39:36.356Z,21.82
2023-06-02T06:42:04.876Z,21.93
2023-06-02T06:44:33.788Z,22.05
2023-06-02T06:47:03.160Z,22.16
2023-06-02T06:49:31.533Z,22.23
2023-06-02T06:52:00.327Z,22.26
2023-06-02T06:54:29.949Z,22.30
2023-06-02T06:56:59.849Z,22.34
2023-06-02T06:59:28.190Z,22.40
2023-06-02T07:01:56.433Z,22.44
2023-06-02T07:04:24.793Z,22.48
2023-06-02T07:06:53.053Z,22.50
2023-06-02T07:09:21.485Z,22.54
2023-06-02T07:11:49.742Z,22.60
2023-06-02T07:14:18.921Z,22.67
2023-06-02T07:16:48.297Z,22.76
2023-06-02T07:19:16.647Z,22.89
2023-06-02T07:21:45.075Z,23.01
2023-06-02T07:24:14.398Z,23.15
2023-06-02T07:26:44.572Z,23.30
2023-06-02T07:29:16.701Z,23.46
2023-06-02T07:31:45.481Z,23.58
2023-06-02T07:34:13.907Z,23.66
2023-06-02T07:36:42.828Z,23.73
2023-06-02T07:39:11.221Z,23.80
2023-06-02T07:41:40.582Z,23.86
2023-06-02T07:44:09.399Z,23.88
2023-06-02T07:46:38.167Z,23.93
2023-06-02T07:49:06.562Z,23.98
2023-06-02T07:51:34.906Z,24.03
2023-06-02T07:54:03.405Z,24.09
2023-06-02T07:56:31.697Z,24.14
2023-06-02T07:59:01.121Z,24.21
2023-06-02T08:01:30.550Z,24.30
2023-06-02T08:03:59.009Z,24.38
2023-06-02T08:06:27.410Z,24.46
2023-06-02T08:08:56.541Z,24.55
2023-06-02T08:11:25.096Z,24.54
2023-06-02T08:13:53.571Z,24.55
2023-06-02T08:16:28.748Z,24.60
2023-06-02T08:18:58.760Z,24.61
2023-06-02T08:21:27.659Z,24.63
2023-06-02T08:23:56.656Z,24.69
2023-06-02T08:26:24.914Z,24.75
2023-06-02T08:28:53.681Z,24.79
2023-06-02T08:31:22.311Z,24.76
2023-06-02T08:33:51.610Z,24.74
2023-06-02T08:36:21.089Z,24.84
2023-06-02T08:38:50.627Z,24.98
2023-06-02T08:41:19.346Z,25.07
2023-06-02T08:43:47.995Z,25.17
2023-06-02T08:46:17.296Z,25.26
2023-06-02T08:48:48.369Z,25.31
2023-06-02T08:51:22.553Z,25.39
2023-06-02T08:53:52.059Z,25.47
2023-06-02T08:56:20.894Z,25.53
2023-06-02T08:58:49.499Z,25.62
2023-06-02T09:01:18.121Z,25.62
2023-06-02T09:03:49.687Z,25.55
2023-06-02T09:06:23.434Z,25.54
2023-06-02T09:09:00.483Z,25.60
2023-06-02T09:11:31.316Z,25.70
2023-06-02T09:13:59.984Z,25.90
2023-06-02T09:16:41.189Z,26.10
2023-06-02T09:19:09.461Z,26.27
2023-06-02T09:21:37.692Z,26.27
2023-06-02T09:26:37.961Z,26.41
2023-06-02T09:29:14.403Z,26.58
2023-06-02T09:31:46.641Z,26.61
2023-06-02T09:34:16.973Z,26.56
2023-06-02T09:36:48.082Z,26.64
2023-06-02T09:39:32.560Z,26.77
2023-06-02T09:42:02.455Z,26.90
2023-06-02T09:44:30.947Z,26.94
2023-06-02T09:47:01.182Z,27.03
2023-06-02T09:49:42.673Z,27.05
2023-06-02T09:52:19.139Z,27.04
2023-06-02T09:54:49.302Z,27.11
2023-06-02T09:57:18.070Z,27.18
2023-06-02T09:59:47.133Z,27.13
2023-06-02T10:02:17.565Z,27.18
2023-06-02T10:04:46.380Z,27.23
2023-06-02T10:07:32.990Z,27.09
2023-06-02T10:10:10.295Z,26.94
2023-06-02T10:12:59.314Z,26.68
2023-06-02T10:15:56.402Z,26.48
2023-06-02T10:19:15.931Z,26.22
2023-06-02T10:21:56.414Z,26.04
2023-06-02T10:24:45.649Z,26.10
2023-06-02T10:27:40.001Z,26.07
2023-06-02T10:30:09.006Z,25.91
2023-06-02T10:32:51.170Z,25.79
2023-06-02T10:35:19.941Z,25.70
2023-06-02T10:38:08.448Z,25.65
2023-06-02T10:40:50.779Z,25.62
2023-06-02T10:43:19.461Z,25.65
2023-06-02T10:45:47.730Z,25.56
2023-06-02T10:48:35.708Z,25.49
2023-06-02T10:51:05.970Z,25.50
2023-06-02T10:53:34.724Z,25.60
2023-06-02T10:56:41.847Z,25.65
2023-06-02T10:59:12.132Z,25.77
2023-06-02T11:01:52.403Z,25.87
2023-06-02T11:04:27.471Z,26.04
2023-06-02T11:07:15.648Z,26.06
2023-06-02T11:09:43.926Z,26.02
2023-06-02T11:12:13.331Z,25.87
2023-06-02T11:15:05.810Z,25.88
2023-06-02T11:17:35.914Z,25.94
2023-06-02T11:20:05.517Z,26.02
2023-06-02T11:22:37.633Z,26.12
2023-06-02T11:25:06.637Z,26.33
2023-06-02T11:27:39.429Z,26.48
2023-06-02T11:30:13.939Z,26.66
2023-06-02T11:32:43.412Z,26.90
2023-06-02T11:35:12.315Z,27.11
2023-06-02T11:37:43.169Z,27.23
2023-06-02T11:40:12.802Z,27.35
2023-06-02T11:42:46.071Z,27.55
2023-06-02T11:45:27.915Z,27.74
2023-06-02T11:48:06.074Z,27.92
2023-06-02T11:50:35.983Z,27.98
2023-06-02T11:53:11.950Z,27.89
2023-06-02T11:55:40.649Z,27.72
2023-06-02T11:58:20.901Z,27.79
2023-06-02T12:00:51.781Z,27.85
2023-06-02T12:03:20.353Z,27.77
2023-06-02T12:05:50.036Z,27.64
2023-06-02T12:08:20.532Z,27.56
2023-06-02T12:10:50.164Z,27.44
2023-06-02T12:13:25.447Z,27.40
2023-06-02T12:15:55.022Z,27.50
2023-06-02T12:18:34.055Z,27.60
2023-06-02T12:21:03.308Z,27.75
2023-06-02T12:23:47.793Z,27.88
2023-06-02T12:26:17.348Z,27.78
2023-06-02T12:28:46.937Z,27.74
2023-06-02T12:31:21.805Z,27.87
2023-06-02T12:33:50.644Z,28.04
2023-06-02T12:36:18.916Z,28.16
2023-06-02T12:38:48.388Z,28.33
2023-06-02T12:41:16.674Z,28.27
2023-06-02T12:43:45.319Z,28.29
2023-06-02T12:46:14.341Z,28.38
2023-06-02T12:48:43.188Z,28.37
2023-06-02T12:51:11.704Z,28.34
2023-06-02T12:53:40.448Z,28.43
2023-06-02T12:56:09.224Z,28.50
2023-06-02T12:58:39.286Z,28.49
2023-06-02T13:01:07.847Z,28.49
2023-06-02T13:03:36.638Z,28.40
2023-06-02T13:06:09.047Z,28.15
2023-06-02T13:08:38.533Z,28.09
2023-06-02T13:11:06.885Z,28.15
2023-06-02T13:13:37.581Z,28.19
2023-06-02T13:16:06.454Z,28.19
2023-06-02T13:18:34.940Z,28.14
2023-06-02T13:21:03.271Z,28.14
2023-06-02T13:23:31.840Z,28.17
2023-06-02T13:26:00.228Z,28.24
2023-06-02T13:28:29.195Z,28.12
2023-06-02T13:30:58.858Z,28.26
2023-06-02T13:33:27.280Z,28.43
2023-06-02T13:35:55.860Z,28.47
2023-06-02T13:38:24.331Z,28.45
2023-06-02T13:40:52.635Z,28.33
2023-06-02T13:43:22.089Z,28.22
2023-06-02T13:45:52.196Z,28.33
2023-06-02T13:48:20.906Z,28.34
2023-06-02T13:50:49.253Z,28.36
2023-06-02T13:53:17.631Z,28.17
2023-06-02T13:55:45.891Z,28.08
2023-06-02T13:58:14.308Z,28.03
2023-06-02T14:00:43.081Z,28.06
2023-06-02T14:03:11.608Z,28.10
2023-06-02T14:05:40.819Z,28.12
2023-06-02T14:08:09.359Z,28.07
2023-06-02T14:10:37.588Z,28.05
2023-06-02T14:13:05.928Z,27.96
2023-06-02T14:15:34.912Z,27.78
2023-06-02T14:18:03.318Z,27.75
2023-06-02T14:20:31.590Z,27.75
2023-06-02T14:22:59.698Z,27.73
2023-06-02T14:25:27.896Z,27.76
2023-06-02T14:27:56.595Z,27.65
2023-06-02T14:30:25.403Z,27.47
2023-06-02T14:32:53.753Z,27.30
2023-06-02T14:35:22.745Z,27.14
2023-06-02T14:37:50.958Z,26.97
2023-06-02T14:40:19.777Z,26.77
2023-06-02T14:42:48.710Z,26.69
2023-06-02T14:45:16.906Z,26.49
2023-06-02T14:47:45.117Z,26.23
2023-06-02T14:50:13.775Z,26.12
2023-06-02T14:52:41.879Z,26.14
2023-06-02T14:55:10.276Z,26.14
2023-06-02T14:57:38.890Z,26.01
2023-06-02T15:00:08.095Z,26.03
2023-06-02T15:02:36.345Z,26.07
2023-06-02T15:05:05.406Z,26.08
2023-06-02T15:07:33.637Z,26.16
2023-06-02T15:10:01.714Z,26.19
2023-06-02T15:12:32.263Z,26.22
2023-06-02T15:15:00.588Z,26.36
2023-06-02T15:17:29.037Z,26.49
2023-06-02T15:19:57.470Z,26.41
2023-06-02T15:22:26.294Z,26.37
2023-06-02T15:24:54.531Z,26.33
2023-06-02T15:27:22.928Z,26.29
2023-06-02T15:29:53.288Z,26.25
2023-06-02T15:32:21.967Z,26.28
2023-06-02T15:34:50.302Z,26.24
2023-06-02T15:37:18.508Z,26.04
2023-06-02T15:39:46.650Z,26.00
2023-06-02T15:42:14.850Z,25.89
2023-06-02T15:44:43.131Z,25.67
2023-06-02T15:47:11.293Z,25.58
2023-06-02T15:49:39.894Z,25.53
2023-06-02T15:52:08.319Z,25.52
2023-06-02T15:54:37.022Z,25.50
2023-06-02T15:57:05.729Z,25.44
2023-06-02T15:59:33.984Z,25.35
2023-06-02T16:02:04.955Z,25.19
2023-06-02T16:04:33.353Z,25.07
2023-06-02T16:07:01.702Z,25.06
2023-06-02T16:09:31.959Z,25.12
2023-06-02T16:12:00.933Z,25.19
2023-06-02T16:14:29.325Z,25.23
2023-06-02T16:16:57.600Z,25.26
2023-06-02T16:19:26.666Z,25.15
2023-06-02T16:21:55.661Z,24.99
2023-06-02T16:24:24.116Z,24.93
2023-06-02T16:26:52.452Z,24.94
2023-06-02T16:29:20.598Z,24.89
2023-06-02T16:31:48.768Z,24.81
2023-06-02T16:34:17.368Z,24.70
2023-06-02T16:36:45.625Z,24.58
2023-06-02T16:39:13.753Z,24.58
2023-06-02T16:41:43.332Z,24.58
2023-06-02T16:44:12.322Z,24.55
2023-06-02T16:46:40.776Z,24.54
2023-06-02T16:49:12.183Z,24.50
2023-06-02T16:51:40.674Z,24.46
2023-06-02T16:54:08.805Z,24.38
2023-06-02T16:56:37.153Z,24.28
2023-06-02T16:59:05.244Z,24.23
2023-06-02T17:01:33.948Z,24.19
2023-06-02T17:04:02.378Z,24.17
2023-06-02T17:06:31.408Z,24.13
2023-06-02T17:08:59.601Z,24.16
2023-06-02T17:11:32.491Z,24.16
2023-06-02T17:14:01.829Z,24.16
2023-06-02T17:16:30.279Z,24.16
2023-06-02T17:18:59.299Z,24.13
2023-06-02T17:21:27.704Z,24.08
2023-06-02T17:23:56.579Z,24.04
2023-06-02T17:26:25.444Z,24.04
2023-06-02T17:28:53.606Z,23.99
2023-06-02T17:31:23.143Z,23.95
2023-06-02T17:33:51.925Z,23.87
2023-06-02T17:36:20.084Z,23.83
2023-06-02T17:38:48.250Z,23.81
2023-06-02T17:41:16.555Z,23.81
2023-06-02T17:43:45.696Z,23.82
2023-06-02T17:46:14.114Z,23.77
2023-06-02T17:48:44.101Z,23.64
2023-06-02T17:51:12.243Z,23.54
2023-06-02T17:53:43.527Z,23.39
2023-06-02T17:56:11.826Z,23.29
2023-06-02T17:58:40.863Z,23.28
2023-06-02T18:01:09.862Z,23.27
2023-06-02T18:03:39.219Z,23.23
2023-06-02T18:06:07.760Z,23.21
2023-06-02T18:08:36.307Z,23.20
2023-06-02T18:11:05.408Z,23.20
2023-06-02T18:13:34.073Z,23.20
2023-06-02T18:16:02.600Z,23.23
2023-06-02T18:18:30.966Z,23.26
2023-06-02T18:20:59.646Z,23.32
2023-06-02T18:23:28.492Z,23.36
2023-06-02T18:25:56.917Z,23.39
2023-06-02T18:28:26.181Z,23.41
2023-06-02T18:30:54.882Z,23.40
2023-06-02T18:33:23.169Z,23.29
2023-06-02T18:35:52.468Z,23.24
2023-06-02T18:38:20.888Z,23.18
2023-06-02T18:40:49.195Z,23.20
2023-06-02T18:43:17.456Z,23.19
2023-06-02T18:45:45.653Z,23.19
2023-06-02T18:48:14.686Z,23.21
2023-06-02T18:50:43.544Z,23.22
2023-06-02T18:53:12.090Z,23.21
2023-06-02T18:55:40.320Z,23.18
2023-06-02T18:58:08.548Z,23.14
2023-06-02T19:00:38.048Z,23.13
2023-06-02T19:03:06.457Z,23.12
2023-06-02T19:05:35.796Z,23.05
2023-06-02T19:08:04.342Z,22.98
2023-06-02T19:10:32.638Z,22.95
2023-06-02T19:13:00.948Z,22.97
2023-06-02T19:15:29.364Z,22.96
2023-06-02T19:17:57.728Z,22.94
2023-06-02T19:20:26.401Z,22.92
2023-06-02T19:22:55.086Z,22.85
2023-06-02T19:25:23.382Z,22.77
2023-06-02T19:27:51.664Z,22.74
2023-06-02T19:30:19.963Z,22.70
2023-06-02T19:32:48.338Z,22.70
2023-06-02T19:35:18.766Z,22.68
2023-06-02T19:37:48.170Z,22.65
2023-06-02T19:40:16.420Z,22.66
2023-06-02T19:42:45.003Z,22.68
2023-06-02T19:45:14.225Z,22.71
2023-06-02T19:47:42.682Z,22.72
2023-06-02T19:50:11.210Z,22.73
2023-06-02T19:52:39.794Z,22.76
2023-06-02T19:55:09.013Z,22.78
2023-06-02T19:57:40.246Z,22.79
2023-06-02T20:00:09.326Z,22.78
2023-06-02T20:02:38.911Z,22.79
2023-06-02T20:05:07.728Z,22.80
2023-06-02T20:07:35.884Z,22.81
2023-06-02T20:10:05.524Z,22.83
2023-06-02T20:12:35.058Z,22.81
2023-06-02T20:15:07.540Z,22.81
2023-06-02T20:17:36.910Z,22.81
2023-06-02T20:20:06.305Z,22.77
2023-06-02T20:22:34.511Z,22.75
2023-06-02T20:25:03.409Z,22.72
2023-06-02T20:27:31.661Z,22.64
2023-06-02T20:30:00.238Z,22.57
2023-06-02T20:32:29.262Z,22.50
2023-06-02T20:34:57.734Z,22.45
2023-06-02T20:37:25.870Z,22.37
2023-06-02T20:39:54.160Z,22.31
2023-06-02T20:42:22.368Z,22.30
2023-06-02T20:44:50.606Z,22.34
2023-06-02T20:47:18.790Z,22.39
2023-06-02T20:49:46.895Z,22.42
2023-06-02T20:52:15.240Z,22.44
2023-06-02T20:54:44.284Z,22.44
2023-06-02T20:57:12.598Z,22.42
2023-06-02T20:59:41.112Z,22.36
2023-06-02T21:02:09.421Z,22.29
2023-06-02T21:04:37.950Z,22.24
2023-06-02T21:07:07.097Z,22.25
2023-06-02T21:09:35.319Z,22.24
2023-06-02T21:12:04.285Z,22.20
2023-06-02T21:14:32.552Z,22.16
2023-06-02T21:17:00.793Z,22.16
2023-06-02T21:19:29.233Z,22.17
2023-06-02T21:21:57.636Z,22.18
2023-06-02T21:24:25.907Z,22.19
2023-06-02T21:26:54.008Z,22.12
2023-06-02T21:29:22.064Z,22.09
2023-06-02T21:31:50.319Z,22.10
2023-06-02T21:34:18.988Z,22.09
2023-06-02T21:36:47.163Z,22.12
2023-06-02T21:39:15.340Z,22.14
2023-06-02T21:41:43.512Z,22.14
2023-06-02T21:44:11.890Z,22.13
2023-06-02T21:46:40.561Z,22.13
2023-06-02T21:49:08.723Z,22.13
2023-06-02T21:51:36.944Z,22.12
2023-06-02T21:54:05.862Z,22.10
2023-06-02T21:56:34.799Z,22.12
2023-06-02T21:59:03.682Z,22.13
2023-06-02T22:01:32.158Z,22.13
2023-06-02T22:04:00.732Z,22.15
2023-06-02T22:06:28.999Z,22.18
2023-06-02T22:08:57.553Z,22.18
2023-06-02T22:11:25.818Z,22.18
2023-06-02T22:13:54.034Z,22.17
2023-06-02T22:16:22.440Z,22.12
2023-06-02T22:18:51.310Z,22.12
2023-06-02T22:21:29.614Z,22.12
2023-06-02T22:24:18.168Z,22.13
2023-06-02T22:26:54.082Z,22.12
2023-06-02T22:29:27.061Z,22.10
2023-06-02T22:31:56.941Z,22.09
2023-06-02T22:34:25.229Z,22.07
2023-06-02T22:36:54.770Z,22.08
2023-06-02T22:39:22.970Z,22.11
2023-06-02T22:41:52.598Z,22.10
2023-06-02T22:44:21.481Z,22.12
2023-06-02T22:46:49.879Z,22.11
2023-06-02T22:49:18.128Z,22.08
2023-06-02T22:51:46.247Z,22.11
2023-06-02T22:54:14.641Z,22.13
2023-06-02T22:56:43.372Z,22.14
2023-06-02T22:59:12.420Z,22.13
2023-06-02T23:01:40.643Z,22.13
2023-06-02T23:04:09.209Z,22.14
2023-06-02T23:06:38.377Z,22.16
2023-06-02T23:09:06.926Z,22.16
2023-06-02T23:11:35.638Z,22.16
2023-06-02T23:14:07.454Z,22.16
2023-06-02T23:16:35.650Z,22.14
2023-06-02T23:19:03.852Z,22.13
2023-06-02T23:21:32.958Z,22.13
2023-06-02T23:24:01.211Z,22.12
2023-06-02T23:26:29.433Z,22.14
2023-06-02T23:28:57.828Z,22.15
2023-06-02T23:31:26.001Z,22.16
2023-06-02T23:33:55.496Z,22.18
2023-06-02T23:36:24.249Z,22.18
2023-06-02T23:38:52.455Z,22.20
2023-06-02T23:41:20.725Z,22.16
2023-06-02T23:43:48.881Z,22.13
2023-06-02T23:46:17.385Z,22.11
2023-06-02T23:48:46.070Z,22.12
2023-06-02T23:51:14.427Z,22.14
2023-06-02T23:53:42.529Z,22.15
2023-06-02T23:56:10.687Z,22.15
2023-06-02T23:58:39.236Z,22.15
